Latest Weather Observations for Lake Grace

IDW60801

Issued at 11:23 am WST Sunday 10 May 2026 (issued every 10 minutes, with the page automatically refreshed every 10 minutes)

About weather observations | Map of weather stations | Latest weather observations for WA | Other Formats
Station Details ID: 010911 Name: LAKE GRACE Lat: -33.10 Lon: 118.46 Height: 286.0 m
Data from the previous 72 hours. | See also: Recent months at Lake Grace
Date/Time
WST
Temp
°C
App
Temp
°C
Dew
Point
°C
Rel
Hum
%
Delta-T
°C
Wind Press
QNH
hPa
Press
MSL
hPa
Rain since
9am
mm
Dir  Spd
km/h
Gust
km/h
Spd
kts
Gust
kts
10/11:00am 17.2 13.0 7.5 53 4.9 NNE 19 26 10 14 1028.3 1028.0 0.0
10/10:30am 17.3 13.1 8.4 56 4.6 NNE 20 32 11 17 1028.5 1028.2 0.0
10/10:00am 16.1 12.1 8.3 60 4.0 NNE 19 28 10 15 1029.0 1028.8 0.0
10/09:30am 14.6 10.6 8.1 65 3.3 NNE 19 26 10 14 1029.3 1029.1 0.0
10/09:00am 13.8 10.2 8.2 69 2.8 NNE 17 26 9 14 1029.3 1029.1 0.0
10/08:30am 12.5 9.4 7.4 71 2.5 NNE 13 20 7 11 1029.4 1029.2 0.0
10/08:00am 11.4 8.7 7.5 77 1.9 NNE 11 17 6 9 1029.3 1029.1 0.0
10/07:30am 9.9 7.1 6.8 81 1.5 NE 11 17 6 9 1029.3 1029.1 0.0
10/07:00am 9.2 6.3 6.5 83 1.3 NE 11 15 6 8 1029.0 1028.8 0.0
10/06:30am 8.9 6.0 6.5 85 1.1 NE 11 17 6 9 1028.8 1028.5 0.0
10/06:00am 8.7 6.2 6.5 86 1.0 NNE 9 15 5 8 1028.5 1028.2 0.0
10/05:30am 8.3 5.3 6.1 86 1.0 NNE 11 17 6 9 1028.5 1028.2 0.0
10/05:00am 8.3 4.9 5.8 84 1.1 N 13 15 7 8 1028.3 1028.0 0.0
10/04:30am 8.8 5.7 5.7 81 1.4 NNE 11 17 6 9 1028.0 1027.7 0.0
10/04:00am 10.1 6.3 5.9 75 2.0 NE 15 24 8 13 1027.7 1027.5 0.0
10/03:30am 10.2 5.6 5.6 73 2.1 NE 19 30 10 16 1027.6 1027.4 0.0
10/03:00am 10.5 6.7 5.7 72 2.2 NE 15 22 8 12 1027.7 1027.5 0.0
10/02:30am 10.5 6.7 5.7 72 2.2 NE 15 22 8 12 1028.0 1027.7 0.0
10/02:00am 10.7 6.9 5.7 71 2.3 ENE 15 22 8 12 1027.8 1027.6 0.0
10/01:30am 10.1 6.2 5.5 73 2.1 ENE 15 24 8 13 1027.8 1027.6 0.0
10/01:00am 10.8 7.0 5.6 70 2.4 ENE 15 20 8 11 1027.8 1027.6 0.0
10/12:30am 11.4 8.3 5.7 68 2.7 ENE 11 17 6 9 1027.8 1027.6 0.0
10/12:00am 11.8 8.4 5.9 67 2.8 NE 13 20 7 11 1027.8 1027.6 0.0
 
Date/Time
WST
Temp
°C
App
Temp
°C
Dew
Point
°C
Rel
Hum
%
Delta-T
°C
Wind Press
QNH
hPa
Press
MSL
hPa
Rain since
9am
mm
Dir  Spd
km/h
Gust
km/h
Spd
kts
Gust
kts
09/11:30pm 12.1 8.6 5.5 64 3.1 NE 13 20 7 11 1028.1 1027.8 0.0
09/11:00pm 11.8 8.0 5.7 66 2.9 ENE 15 22 8 12 1028.2 1027.9 0.0
09/10:30pm 11.8 8.3 5.4 65 3.0 ENE 13 19 7 10 1028.3 1028.0 0.0
09/10:00pm 12.5 9.0 5.4 62 3.3 ENE 13 19 7 10 1028.6 1028.3 0.0
09/09:30pm 13.1 10.0 5.5 60 3.6 ENE 11 15 6 8 1028.6 1028.3 0.0
09/09:00pm 13.6 10.1 5.5 58 3.8 ENE 13 17 7 9 1028.5 1028.2 0.0
09/08:30pm 13.5 10.0 5.4 58 3.9 ENE 13 19 7 10 1028.4 1028.1 0.0
09/08:00pm 13.6 10.1 5.3 57 3.9 ENE 13 17 7 9 1028.4 1028.1 0.0
09/07:30pm 14.5 11.0 5.3 54 4.4 ENE 13 20 7 11 1028.2 1027.9 0.0
09/07:00pm 15.3 11.4 5.2 51 4.8 E 15 20 8 11 1028.0 1027.7 0.0
09/06:30pm 15.7 12.9 5.0 49 5.1 E 9 15 5 8 1027.8 1027.6 0.0
09/06:00pm 16.2 13.3 4.9 47 5.4 E 9 13 5 7 1027.4 1027.2 0.0
09/05:30pm 17.2 14.3 4.9 44 6.0 ENE 9 13 5 7 1027.3 1027.1 0.0
09/05:00pm 18.9 15.6 4.7 39 6.9 ENE 11 15 6 8 1027.2 1027.0 0.0
09/04:30pm 19.8 15.7 4.3 36 7.6 ENE 15 22 8 12 1027.1 1026.9 0.0
09/04:00pm 20.4 17.1 4.8 36 7.7 ENE 11 17 6 9 1027.1 1026.9 0.0
09/03:30pm 20.4 17.1 4.4 35 7.8 ENE 11 20 6 11 1027.3 1027.1 0.0
09/03:00pm 20.1 16.2 3.3 33 8.0 ENE 13 22 7 12 1027.5 1027.3 0.0
09/02:30pm 20.2 16.9 4.7 36 7.6 ENE 11 20 6 11 1027.4 1027.2 0.0
09/02:00pm 19.9 16.6 4.4 36 7.5 NE 11 17 6 9 1027.8 1027.6 0.0
09/01:30pm 19.4 15.8 5.1 39 7.1 NNW 13 20 7 11 1028.2 1027.9 0.0
09/01:00pm 19.2 15.7 5.3 40 6.8 NNE 13 20 7 11 1028.4 1028.1 0.0
09/12:30pm 19.1 15.3 5.6 41 6.7 NNE 15 22 8 12 1028.9 1028.7 0.0
09/12:00pm 18.0 13.8 5.6 44 6.1 NNE 17 26 9 14 1029.5 1029.3 0.0
09/11:30am 17.2 12.6 5.8 47 5.6 NNE 19 30 10 16 1029.9 1029.7 0.0
09/11:00am 17.4 12.4 6.3 48 5.5 NNE 22 33 12 18 1030.5 1030.3 0.0
09/10:30am 17.1 12.2 6.9 51 5.1 NNE 22 35 12 19 1030.7 1030.5 0.0
09/10:00am 15.5 10.9 6.5 55 4.4 NNE 20 33 11 18 1031.1 1030.9 0.0
09/09:30am 14.4 10.0 6.5 59 3.9 NE 19 32 10 17 1031.2 1031.0 0.0
09/09:00am 13.2 9.2 6.8 65 3.1 NE 17 28 9 15 1031.4 1031.2 0.0
09/08:30am 10.7 6.5 5.5 70 2.4 NE 17 28 9 15 1031.7 1031.4 0.0
09/08:00am 9.8 5.5 5.4 74 2.0 ENE 17 24 9 13 1031.7 1031.4 0.0
09/07:30am 8.4 4.8 4.8 78 1.6 ENE 13 19 7 10 1031.6 1031.3 0.0
09/07:00am 7.7 4.0 4.7 81 1.3 ENE 13 19 7 10 1031.3 1031.1 0.0
09/06:30am 7.5 3.8 4.5 81 1.3 ENE 13 20 7 11 1031.0 1030.8 0.0
09/06:00am 7.5 4.2 4.6 82 1.3 ENE 11 13 6 7 1031.0 1030.8 0.0
09/05:30am 6.2 4.1 4.0 86 1.0 E 4 11 2 6 1031.0 1030.8 0.0
09/05:00am 6.5 3.8 3.7 82 1.2 SSE 7 9 4 5 1031.0 1030.8 0.0
09/04:30am 7.7 5.3 4.3 79 1.5 ENE 6 11 3 6 1030.6 1030.4 0.0
09/04:00am 8.0 5.1 4.4 78 1.6 E 9 13 5 7 1030.4 1030.2 0.0
09/03:30am 8.4 4.7 4.6 77 1.7 E 13 19 7 10 1030.3 1030.1 0.0
09/03:00am 8.6 5.3 4.6 76 1.8 ENE 11 19 6 10 1030.6 1030.4 0.0
09/02:30am 8.7 5.0 4.5 75 1.9 E 13 19 7 10 1030.6 1030.4 0.0
09/02:00am 9.3 6.4 4.7 73 2.1 E 9 13 5 7 1030.7 1030.5 0.0
09/01:30am 9.5 5.8 4.7 72 2.2 E 13 17 7 9 1030.6 1030.4 0.0
09/01:00am 9.7 6.8 4.7 71 2.3 ESE 9 13 5 7 1030.5 1030.3 0.0
09/12:30am 10.3 7.1 4.9 69 2.5 E 11 17 6 9 1030.5 1030.3 0.0
09/12:00am 10.5 6.5 4.9 68 2.6 E 15 20 8 11 1030.3 1030.1 0.0
 
Date/Time
WST
Temp
°C
App
Temp
°C
Dew
Point
°C
Rel
Hum
%
Delta-T
°C
Wind Press
QNH
hPa
Press
MSL
hPa
Rain since
9am
mm
Dir  Spd
km/h
Gust
km/h
Spd
kts
Gust
kts
08/11:30pm 10.9 6.9 4.8 66 2.8 E 15 19 8 10 1030.6 1030.4 0.0
08/11:00pm 11.3 7.3 5.0 65 2.9 E 15 24 8 13 1030.7 1030.5 0.0
08/10:30pm 11.6 6.9 5.0 64 3.1 E 19 26 10 14 1030.8 1030.6 0.0
08/10:00pm 12.0 7.6 5.0 62 3.2 E 17 24 9 13 1030.9 1030.7 0.0
08/09:30pm 12.2 8.2 5.1 62 3.3 E 15 22 8 12 1031.1 1030.9 0.0
08/09:00pm 12.9 9.3 5.1 59 3.6 ENE 13 19 7 10 1031.0 1030.8 0.0
08/08:30pm 13.5 9.6 5.2 57 3.9 E 15 26 8 14 1030.8 1030.6 0.0
08/08:00pm 14.2 9.5 5.0 54 4.3 E 19 28 10 15 1030.5 1030.3 0.0
08/07:30pm 14.4 10.5 5.2 54 4.4 E 15 22 8 12 1030.4 1030.2 0.0
08/07:00pm 14.8 11.3 5.6 54 4.4 ESE 13 19 7 10 1030.3 1030.1 0.0
08/06:30pm 15.6 12.1 5.5 51 4.9 ESE 13 19 7 10 1030.2 1030.0 0.0
08/06:00pm 16.4 12.9 5.4 48 5.3 ESE 13 19 7 10 1030.1 1029.9 0.0
08/05:30pm 17.1 14.0 5.4 46 5.7 ESE 11 17 6 9 1029.9 1029.7 0.0
08/05:00pm 18.4 14.9 5.3 42 6.4 E 13 24 7 13 1029.7 1029.5 0.0
08/04:30pm 19.2 14.4 4.9 39 7.0 E 19 30 10 16 1029.6 1029.4 0.0
08/04:00pm 19.6 14.6 4.5 37 7.3 E 20 32 11 17 1029.7 1029.5 0.0
08/03:30pm 19.9 15.5 4.8 37 7.4 E 17 30 9 16 1029.7 1029.5 0.0
08/03:00pm 19.9 15.1 4.8 37 7.4 E 19 30 10 16 1029.8 1029.6 0.0
08/02:30pm 20.0 15.1 5.3 38 7.3 E 20 39 11 21 1029.9 1029.7 0.0
08/02:00pm 19.5 14.7 4.4 37 7.3 E 19 30 10 16 1030.1 1029.9 0.0
08/01:30pm 19.7 15.4 5.4 39 7.1 E 17 28 9 15 1030.4 1030.2 0.0
08/01:00pm 19.3 15.3 5.0 39 7.0 E 15 22 8 12 1030.9 1030.7 0.0
08/12:30pm 18.8 14.2 5.6 42 6.6 E 19 30 10 16 1031.3 1031.1 0.0
08/12:00pm 18.5 14.4 6.0 44 6.2 E 17 24 9 13 1032.0 1031.8 0.0
08/11:30am 18.4 14.8 6.6 46 6.0 NE 15 26 8 14 1032.6 1032.4 0.0
08/11:00am 18.1 14.2 6.9 48 5.6 NE 17 24 9 13 1033.0 1032.8 0.0
08/10:30am 17.2 12.8 7.5 53 4.9 ENE 20 32 11 17 1033.4 1033.2 0.0
08/10:00am 16.2 11.9 7.9 58 4.2 ENE 20 32 11 17 1033.6 1033.4 0.0
08/09:30am 15.3 11.2 8.5 64 3.5 ENE 20 30 11 16 1033.9 1033.7 0.0
08/09:00am 13.8 9.9 8.8 72 2.5 ENE 19 30 10 16 1033.9 1033.7 0.0
08/08:30am 12.7 8.8 9.3 80 1.7 ENE 20 28 11 15 1033.8 1033.6 0.0
08/08:00am 11.4 7.4 9.1 86 1.2 ENE 20 32 11 17 1033.6 1033.4 0.0
08/07:30am 10.4 6.4 9.0 91 0.7 E 20 28 11 15 1033.3 1033.1 0.0
08/07:00am 9.7 5.7 8.9 95 0.4 E 20 28 11 15 1033.1 1032.9 0.0
08/06:30am 9.3 5.8 8.7 96 0.3 ENE 17 24 9 13 1033.0 1032.8 0.0
08/06:00am 9.4 5.8 8.5 94 0.4 E 17 24 9 13 1032.8 1032.6 0.0
08/05:30am 9.6 5.6 8.4 92 0.6 E 19 30 10 16 1032.9 1032.7 0.0
08/05:00am 10.0 6.1 8.6 91 0.7 E 19 24 10 13 1032.9 1032.7 0.0
08/04:30am 10.2 6.3 8.5 89 0.8 E 19 26 10 14 1032.5 1032.3 0.0
08/04:00am 10.6 6.5 8.5 87 1.0 E 20 28 11 15 1032.4 1032.2 0.0
08/03:30am 10.6 7.8 8.4 86 1.1 E 13 20 7 11 1032.4 1032.2 0.0
08/03:00am 10.8 8.0 8.4 85 1.2 E 13 20 7 11 1032.5 1032.3 0.0
08/02:30am 11.0 8.2 8.4 84 1.3 ESE 13 20 7 11 1032.6 1032.4 0.0
08/02:00am 11.1 8.7 8.5 84 1.3 ESE 11 15 6 8 1032.6 1032.4 0.0
08/01:30am 11.5 9.2 8.9 84 1.3 ESE 11 17 6 9 1032.6 1032.4 0.0
08/01:00am 11.2 9.3 9.1 87 1.1 SE 9 15 5 8 1032.7 1032.5 0.0
08/12:30am 11.1 8.9 9.2 88 1.0 ESE 11 17 6 9 1032.6 1032.4 0.0
08/12:00am 11.1 8.8 9.0 87 1.1 ESE 11 13 6 7 1032.7 1032.5 0.0
 
Date/Time
WST
Temp
°C
App
Temp
°C
Dew
Point
°C
Rel
Hum
%
Delta-T
°C
Wind Press
QNH
hPa
Press
MSL
hPa
Rain since
9am
mm
Dir  Spd
km/h
Gust
km/h
Spd
kts
Gust
kts
07/11:30pm 11.3 9.0 9.0 86 1.2 ESE 11 17 6 9 1032.7 1032.5 0.0
07/11:00pm 11.2 8.8 8.6 84 1.3 SE 11 17 6 9 1032.8 1032.6 0.0
07/10:30pm 11.4 8.5 8.1 80 1.6 SE 13 19 7 10 1032.7 1032.5 0.0
07/10:00pm 11.9 8.9 7.6 75 2.1 ESE 13 17 7 9 1032.7 1032.5 0.0
07/09:30pm 12.5 9.4 7.2 70 2.6 ESE 13 19 7 10 1032.6 1032.4 0.0
07/09:00pm 13.0 9.8 7.0 67 2.9 ESE 13 19 7 10 1032.3 1032.1 0.0
07/08:30pm 13.5 10.4 7.1 65 3.2 ESE 13 19 7 10 1032.1 1031.9 0.0
07/08:00pm 13.8 10.3 7.1 64 3.3 ESE 15 24 8 13 1032.1 1031.9 0.0
07/07:30pm 14.0 10.9 7.3 64 3.3 ESE 13 22 7 12 1032.2 1032.0 0.0
07/07:00pm 14.4 10.9 7.2 62 3.6 ESE 15 20 8 11 1032.0 1031.8 0.0
07/06:30pm 14.8 11.7 7.1 60 3.8 ESE 13 20 7 11 1032.0 1031.8 0.0
07/06:00pm 15.6 12.1 7.1 57 4.2 ESE 15 24 8 13 1031.8 1031.5 0.0
07/05:30pm 16.5 13.0 7.2 54 4.7 ESE 15 20 8 11 1031.4 1031.2 0.0
07/05:00pm 17.6 13.3 7.1 50 5.3 ESE 19 28 10 15 1031.1 1030.9 0.0
07/04:30pm 18.6 14.6 6.8 46 6.0 ESE 17 32 9 17 1030.9 1030.7 0.0
07/04:00pm 19.1 14.6 6.2 43 6.4 ESE 19 28 10 15 1031.1 1030.9 0.0
07/03:30pm 19.1 14.8 6.9 45 6.2 ESE 19 28 10 15 1031.3 1031.1 0.0
07/03:00pm 19.5 15.6 7.3 45 6.2 E 17 26 9 14 1031.4 1031.2 0.0
07/02:30pm 19.0 14.7 7.1 46 6.1 E 19 32 10 17 1031.4 1031.2 0.0
07/02:00pm 18.6 14.2 7.4 48 5.7 E 20 28 11 15 1031.6 1031.3 0.0
07/01:30pm 18.5 14.8 7.9 50 5.5 E 17 28 9 15 1031.8 1031.5 0.0
07/01:00pm 18.6 14.6 8.3 51 5.3 ENE 19 30 10 16 1031.8 1031.5 0.0
07/12:30pm 18.1 14.4 8.1 52 5.2 ENE 17 28 9 15 1032.2 1032.0 0.0
07/12:00pm 17.3 13.7 8.2 55 4.7 E 17 26 9 14 1032.9 1032.7 0.0
07/11:30am 17.8 14.8 9.2 57 4.6 ESE 15 24 8 13 1033.3 1033.1 0.0

Other formats

Comma delimited format used in spreadsheet applications
http://www.bom.gov.au/fwo/IDW60801/IDW60801.95637.axf

JavaScript Object Notation format (JSON) in row-major order
http://www.bom.gov.au/fwo/IDW60801/IDW60801.95637.json

Data quality

Most of these data are generated automatically and are frequently updated. Quality checks on data are not normally performed. It is possible for incorrect values to appear. Refer to information at About Latest Weather Observations and please check the disclaimer before using these data.